This is the latest recevied weather packets stored in our database for station/object JF7BTK-10. If no packets are shown the sender has not sent any weather packets the latest 10 day(s).
| Time | Temp. | Humidity | Pressure | Rain* | Wind** | Luminosity | Snow |
|---|---|---|---|---|---|---|---|
| 1777804052 | 13.89° C | 88% | 1000.3 hPa | 0.51 mm | - | - | - |
| 1777803751 | 13.89° C | 88% | 1000.2 hPa | 0.51 mm | - | - | - |
| 1777803234 | 13.89° C | 87% | 1000.3 hPa | 0.25 mm | - | - | - |
| 1777802336 | 14.44° C | 85% | 1000.1 hPa | 0.25 mm | - | - | - |
| 1777801435 | 14.44° C | 83% | 1000.1 hPa | 0 mm | - | - | - |
| 1777800534 | 14.44° C | 83% | 1000.2 hPa | 0 mm | - | - | - |
| 1777799636 | 14.44° C | 82% | 999.8 hPa | 0 mm | - | - | - |
| 1777798735 | 14.44° C | 82% | 999.8 hPa | 0 mm | - | - | - |
| 1777797835 | 14.44° C | 82% | 999.9 hPa | 0.25 mm | - | - | - |
| 1777796935 | 14.44° C | 82% | 999.8 hPa | 0.25 mm | - | - | - |
| 1777796035 | 14.44° C | 83% | 1000 hPa | 0.25 mm | - | - | - |
| 1777795135 | 14.44° C | 82% | 1000.1 hPa | 0.25 mm | - | - | - |
| 1777794234 | 15° C | 82% | 1000.9 hPa | 0 mm | - | - | - |
| 1777793336 | 15° C | 80% | 1001 hPa | 0 mm | - | - | - |
| 1777792435 | 15° C | 78% | 1001 hPa | 0 mm | - | - | - |
| 1777791536 | 15° C | 77% | 1001.4 hPa | 0 mm | - | - | - |
| 1777790636 | 15.56° C | 75% | 1001.1 hPa | 0 mm | - | - | - |
| 1777789734 | 15.56° C | 73% | 1000.7 hPa | 0 mm | - | - | - |
| 1777788836 | 16.11° C | 71% | 1000.7 hPa | 0 mm | - | - | - |
| 1777787935 | 16.67° C | 70% | 1000.5 hPa | 0 mm | - | - | - |
| 1777787036 | 17.78° C | 63% | 1000.3 hPa | 0 mm | - | - | - |
| 1777786136 | 22.22° C | 39% | 999.9 hPa | 0 mm | - | - | - |
| 1777785236 | 22.78° C | 33% | 999.8 hPa | 0 mm | - | - | - |
| 1777784336 | 22.78° C | 34% | 999.9 hPa | 0 mm | - | - | - |
| 1777783436 | 22.78° C | 35% | 999.7 hPa | 0 mm | - | - | - |
* Rain latest hour (hover to see other rain measurements)
** Current wind speed in m/s (hover to see current wind gust speed)